Time;durP1;ratioP1;P1;durP2;ratioP2;P2;SDS_P1;SDS_P2;PMS_P1;PMS_P2;Temp;Humidity;BMP_temperature;BMP_pressure;BME280_temperature;BME280_humidity;BME280_pressure;Samples;Min_cycle;Max_cycle;Signal;HPM_P1;HPM_P2
2022/05/27 00:01:27;;;;;;;3.42;0.90;;;;;;;15.96;52.46;100705.66;1618497;87;21437;-78
2022/05/27 00:03:55;;;;;;;4.62;1.00;;;;;;;15.96;52.48;100709.12;1640323;85;22051;-78
2022/05/27 00:06:22;;;;;;;1.57;0.80;;;;;;;15.94;52.52;100703.11;1632963;87;21877;-77
2022/05/27 00:08:48;;;;;;;5.30;1.20;;;;;;;15.91;52.54;100704.98;1601445;88;21856;-77
2022/05/27 00:11:17;;;;;;;5.87;1.20;;;;;;;15.91;52.60;100700.61;1601280;88;21433;-78
2022/05/27 00:13:43;;;;;;;2.90;0.93;;;;;;;15.88;52.63;100705.48;1646998;85;21513;-77
2022/05/27 00:16:10;;;;;;;5.10;0.90;;;;;;;15.86;52.71;100698.17;1640122;86;20944;-77
2022/05/27 00:18:36;;;;;;;;;;;;;;;15.85;52.78;100694.31;1647049;87;21677;-77
2022/05/27 00:21:03;;;;;;;7.77;1.03;;;;;;;15.82;53.03;100684.84;1664705;85;20770;-77
2022/05/27 00:23:30;;;;;;;3.80;0.90;;;;;;;15.82;52.97;100683.54;1663982;86;21810;-77
2022/05/27 00:25:56;;;;;;;3.20;0.72;;;;;;;15.81;52.96;100674.47;1647845;86;27441;-77
2022/05/27 00:28:23;;;;;;;3.58;1.17;;;;;;;15.78;53.01;100672.83;1643936;86;21425;-77
2022/05/27 00:30:49;;;;;;;3.83;0.78;;;;;;;15.80;53.07;100674.08;1635457;87;21091;-77
2022/05/27 00:33:15;;;;;;;5.40;0.90;;;;;;;15.78;53.13;100675.89;1635240;86;21816;-77
2022/05/27 00:35:41;;;;;;;4.80;1.00;;;;;;;15.78;53.26;100676.73;1661715;86;21101;-77
2022/05/27 00:38:08;;;;;;;3.52;0.98;;;;;;;15.78;53.35;100671.52;1661944;86;21108;-77
2022/05/27 00:40:39;;;;;;;3.83;1.70;;;;;;;15.75;53.51;100674.23;1662114;86;21462;-76
2022/05/27 00:43:21;;;;;;;3.05;1.30;;;;;;;15.71;53.56;100677.86;1654736;86;21315;-78
2022/05/27 00:45:50;;;;;;;;;;;;;;;15.67;53.70;100670.20;1665739;86;21077;-76
2022/05/27 00:48:19;;;;;;;2.20;0.90;;;;;;;15.60;54.13;100666.97;1647502;84;20223;-76
2022/05/27 00:50:50;;;;;;;3.08;1.15;;;;;;;15.51;53.92;100661.63;1637061;86;21414;-76
2022/05/27 00:53:22;;;;;;;2.08;1.10;;;;;;;15.41;54.07;100658.09;1637614;87;21458;-76
2022/05/27 00:55:52;;;;;;;2.75;1.10;;;;;;;15.31;54.29;100658.02;1647223;87;21471;-76
2022/05/27 00:58:24;;;;;;;5.45;1.05;;;;;;;15.24;54.48;100656.08;1631582;86;21472;-76
2022/05/27 01:00:51;;;;;;;2.77;1.20;;;;;;;15.19;54.69;100644.96;1632598;86;20905;-76
2022/05/27 01:03:17;;;;;;;;;;;;;;;15.14;54.75;100643.81;1640161;86;21898;-75
2022/05/27 01:05:44;;;;;;;;;;;;;;;15.10;55.67;100643.52;1650000;86;20451;-75
2022/05/27 01:08:13;;;;;;;3.15;1.00;;;;;;;15.06;55.57;100646.31;1641317;87;20124;-75
2022/05/27 01:10:48;;;;;;;2.45;1.22;;;;;;;15.00;55.17;100651.73;1652522;86;21501;-77
2022/05/27 01:13:38;;;;;;;2.70;1.15;;;;;;;14.95;55.27;100657.09;1625104;87;20984;-77
2022/05/27 01:16:41;;;;;;;2.55;1.07;;;;;;;14.90;55.41;100645.97;1659944;85;21374;-77
2022/05/27 01:22:36;;;;;;;1.60;1.12;;;;;;;14.78;55.74;100639.41;1659564;84;20976;-76
2022/05/27 01:25:23;;;;;;;3.33;1.37;;;;;;;14.72;55.92;100632.26;1556251;90;312728;-75
2022/05/27 01:28:25;;;;;;;3.95;1.40;;;;;;;14.69;56.10;100624.55;1558920;90;21603;-75
2022/05/27 01:31:09;;;;;;;4.37;1.70;;;;;;;14.67;56.28;100626.34;1556913;91;21077;-75
2022/05/27 01:33:49;;;;;;;7.95;1.45;;;;;;;14.63;56.37;100616.94;1547132;91;21775;-75
2022/05/27 01:36:36;;;;;;;8.48;1.90;;;;;;;14.54;56.58;100623.33;1558147;90;21254;-76
2022/05/27 01:39:32;;;;;;;7.42;1.77;;;;;;;14.46;56.73;100618.81;1536142;92;20993;-77
2022/05/27 01:42:13;;;;;;;4.70;2.12;;;;;;;14.38;57.13;100618.17;1561280;90;20991;-76
2022/05/27 01:44:47;;;;;;;4.22;2.20;;;;;;;14.27;57.21;100610.70;1561107;91;20904;-76
2022/05/27 01:47:25;;;;;;;4.45;1.80;;;;;;;14.21;57.38;100609.14;1573029;90;20931;-76
2022/05/27 01:50:14;;;;;;;2.42;2.00;;;;;;;14.17;57.75;100594.98;1518373;93;21082;-76
2022/05/27 01:53:13;;;;;;;3.70;2.20;;;;;;;14.10;57.78;100593.02;1494368;90;5000630;-78
2022/05/27 01:55:53;;;;;;;4.55;2.35;;;;;;;14.09;58.10;100584.81;1559955;90;21156;-77
2022/05/27 01:58:32;;;;;;;3.62;1.98;;;;;;;14.10;58.29;100582.61;1555477;90;21111;-77
2022/05/27 02:00:58;;;;;;;3.02;2.10;;;;;;;14.07;58.34;100586.61;1525883;92;21123;-77
2022/05/27 02:03:36;;;;;;;4.10;2.05;;;;;;;14.06;58.46;100576.25;1612992;87;21125;-79
2022/05/27 02:06:19;;;;;;;3.75;2.00;;;;;;;14.04;58.67;100568.50;1604997;88;21469;-76
2022/05/27 02:08:51;;;;;;;3.95;1.80;;;;;;;14.03;58.87;100564.23;1610889;88;21023;-77
2022/05/27 02:11:21;;;;;;;2.37;1.80;;;;;;;14.03;58.96;100573.78;1625175;87;21152;-77
2022/05/27 02:14:04;;;;;;;1.87;1.62;;;;;;;14.04;59.23;100574.15;1632653;87;21087;-76
2022/05/27 02:16:38;;;;;;;1.80;1.52;;;;;;;14.02;59.29;100569.03;1631997;86;21128;-76
2022/05/27 02:19:28;;;;;;;4.30;1.60;;;;;;;14.03;59.53;100564.68;1617111;88;21008;-76
2022/05/27 02:22:03;;;;;;;2.35;1.37;;;;;;;14.02;59.63;100569.48;1627906;86;21124;-76
2022/05/27 02:24:37;;;;;;;2.20;1.27;;;;;;;14.00;59.85;100561.73;1610244;88;21127;-75
2022/05/27 02:27:15;;;;;;;1.62;1.50;;;;;;;13.98;59.91;100557.02;1624739;88;20974;-76
2022/05/27 02:29:49;;;;;;;2.05;1.82;;;;;;;13.97;60.11;100557.07;1605450;88;21091;-76
2022/05/27 02:32:26;;;;;;;2.05;1.60;;;;;;;13.99;60.26;100554.83;1599997;88;20955;-76
2022/05/27 02:35:09;;;;;;;2.70;2.00;;;;;;;14.00;60.32;100547.42;1616046;87;20984;-76
2022/05/27 02:37:45;;;;;;;3.10;2.20;;;;;;;13.99;60.54;100547.02;1623189;88;21470;-76
2022/05/27 02:40:24;;;;;;;2.30;1.80;;;;;;;13.98;60.65;100546.63;1630572;87;20894;-75
2022/05/27 02:42:58;;;;;;;2.52;1.95;;;;;;;13.96;60.79;100541.92;1620081;86;20992;-75
2022/05/27 02:45:45;;;;;;;2.33;2.12;;;;;;;13.95;60.88;100544.56;1635707;86;20934;-75
2022/05/27 02:48:34;;;;;;;;;;;;;;;13.95;61.15;100542.81;1618255;87;20989;-76
2022/05/27 02:51:22;;;;;;;2.37;1.95;;;;;;;13.95;61.84;100538.06;1655999;86;20134;-76
2022/05/27 02:54:40;;;;;;;6.53;2.27;;;;;;;13.94;61.29;100538.97;1655701;86;20902;-76
2022/05/27 02:57:24;;;;;;;3.35;3.10;;;;;;;13.96;61.48;100546.27;1636018;86;21051;-76
2022/05/27 02:59:53;;;;;;;2.83;2.62;;;;;;;13.98;61.60;100540.58;1626425;86;21131;-76
2022/05/27 03:02:21;;;;;;;3.25;3.05;;;;;;;13.99;61.67;100534.47;1636077;87;20909;-76
2022/05/27 03:04:52;;;;;;;2.90;2.70;;;;;;;13.97;61.79;100527.17;1656382;86;20922;-77
2022/05/27 03:07:30;;;;;;;4.95;3.25;;;;;;;13.96;61.93;100524.17;1656239;86;20973;-76
2022/05/27 03:10:24;;;;;;;3.70;3.40;;;;;;;13.96;62.08;100517.22;1648252;86;21830;-76
2022/05/27 03:13:25;;;;;;;3.27;3.08;;;;;;;13.93;62.24;100523.81;1656279;86;21060;-76
2022/05/27 03:16:09;;;;;;;4.33;3.00;;;;;;;13.93;62.38;100515.17;1655970;86;20856;-76
2022/05/27 03:19:12;;;;;;;3.65;3.35;;;;;;;13.94;62.65;100507.32;1642943;86;20932;-75
2022/05/27 03:22:17;;;;;;;5.28;3.60;;;;;;;13.94;62.67;100513.82;1611505;88;20912;-75
2022/05/27 03:25:20;;;;;;;5.03;4.35;;;;;;;13.93;62.80;100508.22;1628140;87;21099;-75
2022/05/27 03:28:13;;;;;;;4.05;3.75;;;;;;;13.93;62.89;100510.82;1618742;87;21083;-75
2022/05/27 03:31:12;;;;;;;4.20;3.90;;;;;;;13.97;63.08;100498.58;1642420;87;21132;-75
2022/05/27 03:33:56;;;;;;;4.42;4.03;;;;;;;13.96;63.12;100499.48;1642324;87;21063;-77
2022/05/27 03:36:34;;;;;;;5.83;4.35;;;;;;;13.94;63.25;100500.82;1632879;87;21007;-77
2022/05/27 03:39:15;;;;;;;5.90;4.58;;;;;;;13.95;63.43;100498.63;1628362;86;21052;-77
2022/05/27 03:41:59;;;;;;;5.10;4.60;;;;;;;13.96;63.52;100495.58;1614916;86;21055;-77
2022/05/27 03:44:27;;;;;;;4.90;4.40;;;;;;;13.94;63.58;100497.38;1627726;86;21106;-78
2022/05/27 03:46:55;;;;;;;5.05;4.28;;;;;;;13.94;63.68;100495.63;1645056;86;21069;-77
2022/05/27 03:49:22;;;;;;;6.42;4.60;;;;;;;13.96;63.79;100496.88;1633496;86;21075;-77
2022/05/27 03:52:05;;;;;;;4.70;4.33;;;;;;;13.96;63.88;100497.73;1644476;86;21145;-77
2022/05/27 03:54:32;;;;;;;5.30;4.80;;;;;;;13.99;64.08;100500.67;1660481;85;21103;-77
2022/05/27 03:56:59;;;;;;;5.05;4.55;;;;;;;13.98;64.14;100493.33;1631380;86;21091;-77
2022/05/27 03:59:26;;;;;;;;;;;;;;;13.98;64.19;100492.48;1655189;86;20927;-78
2022/05/27 04:01:55;;;;;;;5.62;4.62;;;;;;;13.98;65.03;100495.92;1639111;86;20223;-78
2022/05/27 04:04:26;;;;;;;4.97;4.58;;;;;;;13.99;64.40;100488.53;1626330;86;21147;-77
2022/05/27 04:06:53;;;;;;;4.97;4.58;;;;;;;14.01;64.48;100493.69;1642799;86;21020;-75
2022/05/27 04:09:21;;;;;;;6.28;4.62;;;;;;;14.04;64.56;100493.55;1654407;86;21083;-75
2022/05/27 04:11:48;;;;;;;4.65;4.25;;;;;;;14.07;64.60;100494.75;1635831;87;21103;-76
2022/05/27 04:14:14;;;;;;;;;;;;;;;14.07;64.84;100492.16;1655762;86;21024;-78
2022/05/27 04:16:40;;;;;;;4.83;4.12;;;;;;;14.08;65.57;100491.25;1653929;86;20240;-77
2022/05/27 04:19:08;;;;;;;4.70;4.35;;;;;;;14.10;64.93;100486.85;1638179;86;21096;-75
2022/05/27 04:21:37;;;;;;;5.15;4.75;;;;;;;14.12;65.14;100488.50;1626085;87;21099;-76
2022/05/27 04:24:03;;;;;;;5.30;4.30;;;;;;;14.13;65.05;100484.16;1634715;86;21072;-75
2022/05/27 04:26:29;;;;;;;4.80;4.40;;;;;;;14.12;65.19;100483.30;1641149;87;21159;-75
2022/05/27 04:29:02;;;;;;;5.03;4.47;;;;;;;14.13;65.29;100484.16;1641665;86;21119;-75
2022/05/27 04:31:28;;;;;;;4.55;4.12;;;;;;;14.16;65.38;100487.95;1636868;86;21452;-75
2022/05/27 04:33:55;;;;;;;4.90;4.40;;;;;;;14.17;65.56;100493.56;1632993;87;20936;-75
2022/05/27 04:36:29;;;;;;;6.17;4.25;;;;;;;14.17;65.58;100490.50;1639824;85;21154;-75
2022/05/27 04:38:54;;;;;;;4.95;4.45;;;;;;;14.19;65.63;100491.31;1638758;87;21127;-75
2022/05/27 04:41:23;;;;;;;4.70;4.30;;;;;;;14.20;65.75;100498.21;1617350;86;20944;-75
2022/05/27 04:43:48;;;;;;;5.42;4.20;;;;;;;14.22;65.87;100495.11;1618955;88;21091;-75
2022/05/27 04:46:14;;;;;;;5.42;4.00;;;;;;;14.20;65.97;100487.81;1617409;87;21140;-75
2022/05/27 04:48:42;;;;;;;5.65;4.70;;;;;;;14.19;66.09;100495.66;1636248;87;21118;-76
2022/05/27 04:51:08;;;;;;;6.37;3.93;;;;;;;14.21;66.09;100486.05;1602665;88;20975;-75
2022/05/27 04:53:34;;;;;;;5.20;4.70;;;;;;;14.21;66.19;100479.55;1593613;89;21028;-74
2022/05/27 04:56:00;;;;;;;4.20;3.80;;;;;;;14.22;66.36;100490.36;1620574;87;21782;-76
2022/05/27 04:58:26;;;;;;;5.30;4.90;;;;;;;14.25;66.45;100482.45;1634736;84;21177;-75
2022/05/27 05:00:52;;;;;;;5.33;4.83;;;;;;;14.28;66.44;100482.35;1618645;87;21002;-75
2022/05/27 05:03:18;;;;;;;6.00;4.70;;;;;;;14.31;66.51;100478.35;1613920;87;20964;-75
2022/05/27 05:05:44;;;;;;;7.30;5.10;;;;;;;14.35;66.64;100477.80;1631209;85;21075;-75
2022/05/27 05:08:33;;;;;;;5.60;5.03;;;;;;;14.38;66.66;100481.59;1645307;85;21616;-75
2022/05/27 05:11:01;;;;;;;4.40;4.00;;;;;;;14.39;66.77;100476.80;1618040;88;21003;-75
2022/05/27 05:13:29;;;;;;;4.30;3.80;;;;;;;14.43;66.79;100480.58;1627960;86;20976;-73
2022/05/27 05:15:56;;;;;;;3.98;3.60;;;;;;;14.44;66.91;100475.77;1624302;86;21475;-74
2022/05/27 05:18:22;;;;;;;5.00;3.60;;;;;;;14.44;66.95;100476.22;1641956;86;21116;-73
2022/05/27 05:20:48;;;;;;;3.70;3.33;;;;;;;14.44;67.00;100479.67;1637396;85;20937;-73
2022/05/27 05:23:14;;;;;;;3.80;3.50;;;;;;;14.44;67.14;100477.52;1640691;85;21496;-73
2022/05/27 05:25:40;;;;;;;4.12;3.83;;;;;;;14.44;67.16;100478.82;1640840;87;21122;-73
2022/05/27 05:28:06;;;;;;;4.87;3.40;;;;;;;14.43;67.28;100477.13;1631046;86;21091;-73
2022/05/27 05:30:32;;;;;;;3.93;3.40;;;;;;;14.44;67.39;100479.67;1646535;86;20950;-74
2022/05/27 05:32:58;;;;;;;5.15;3.65;;;;;;;14.48;67.54;100481.72;1646241;86;21116;-74
2022/05/27 05:35:24;;;;;;;4.20;3.90;;;;;;;14.51;67.60;100479.86;1654438;86;20964;-73
2022/05/27 05:37:51;;;;;;;4.28;3.87;;;;;;;14.52;67.59;100469.86;1652963;86;21136;-72
2022/05/27 05:40:19;;;;;;;4.50;4.10;;;;;;;14.55;67.67;100465.00;1642569;86;21120;-73
2022/05/27 05:42:47;;;;;;;6.03;4.30;;;;;;;14.59;67.77;100463.95;1640881;85;21626;-72
2022/05/27 05:45:17;;;;;;;6.20;4.58;;;;;;;14.62;67.75;100463.84;1632659;87;21609;-72
2022/05/27 05:47:44;;;;;;;5.53;4.37;;;;;;;14.65;67.83;100463.74;1634176;86;21124;-72
2022/05/27 05:50:12;;;;;;;7.50;4.70;;;;;;;14.71;67.92;100452.27;1633200;87;21051;-67
2022/05/27 05:52:39;;;;;;;19.05;5.72;;;;;;;14.76;67.99;100451.20;1647756;86;21012;-68
2022/05/27 05:55:07;;;;;;;5.60;4.62;;;;;;;14.80;68.12;100452.79;1643604;86;21011;-69
2022/05/27 05:57:41;;;;;;;4.62;4.28;;;;;;;14.85;68.19;100466.49;1645502;86;20991;-78
2022/05/27 06:00:15;;;;;;;6.08;3.80;;;;;;;14.86;68.23;100467.34;1619806;86;21068;-77
2022/05/27 06:02:41;;;;;;;4.87;3.60;;;;;;;14.89;68.40;100469.38;1651986;86;20929;-71
2022/05/27 06:05:10;;;;;;;4.15;3.85;;;;;;;14.92;68.36;100480.59;1646955;85;21099;-80
2022/05/27 06:07:36;;;;;;;4.62;4.22;;;;;;;14.95;68.46;100479.18;1641588;86;20925;-80
2022/05/27 06:10:04;;;;;;;;;;;;;;;14.99;68.51;100481.63;1657402;86;21107;-80
2022/05/27 06:12:35;;;;;;;3.67;3.37;;;;;;;15.01;68.98;100476.36;1641795;86;20208;-81
2022/05/27 06:15:05;;;;;;;4.10;3.15;;;;;;;15.05;68.65;100478.80;1649428;86;21123;-82
2022/05/27 06:17:33;;;;;;;3.20;2.90;;;;;;;15.07;68.57;100484.80;1638407;85;21147;-83
2022/05/27 06:20:00;;;;;;;3.67;3.00;;;;;;;15.07;68.67;100473.08;1642123;85;21076;-79
2022/05/27 06:22:26;;;;;;;2.50;2.30;;;;;;;15.11;68.80;100474.63;1628562;85;21284;-79
2022/05/27 06:24:53;;;;;;;2.83;2.40;;;;;;;15.08;68.92;100468.69;1644419;86;21128;-81
2022/05/27 06:27:19;;;;;;;;;;;;;;;15.03;68.86;100472.79;1640911;86;21072;-82
2022/05/27 06:35:17;;;;;;;2.35;2.17;;;;;;;14.96;68.93;100462.20;1625907;86;21508;-80
2022/05/27 06:37:46;;;;;;;2.55;2.33;;;;;;;14.91;68.94;100468.02;1649784;86;21119;-81
2022/05/27 06:40:14;;;;;;;4.47;2.45;;;;;;;14.89;68.98;100468.53;1630765;86;21107;-81
2022/05/27 06:42:40;;;;;;;3.35;2.20;;;;;;;14.87;69.01;100469.05;1629168;86;21082;-80
2022/05/27 06:45:10;;;;;;;4.15;2.42;;;;;;;14.88;69.09;100469.44;1618808;87;21091;-79
2022/05/27 06:47:38;;;;;;;4.35;2.40;;;;;;;14.90;69.17;100475.44;1630672;86;21147;-78
2022/05/27 06:50:06;;;;;;;2.92;2.35;;;;;;;14.92;69.20;100459.77;1617963;87;21624;-79
2022/05/27 06:52:32;;;;;;;3.33;2.35;;;;;;;14.92;69.22;100452.80;1643666;86;20965;-77
2022/05/27 06:54:58;;;;;;;5.40;2.77;;;;;;;14.95;69.27;100464.86;1623384;87;20952;-77
2022/05/27 06:57:24;;;;;;;3.27;2.50;;;;;;;14.94;69.25;100462.70;1648518;86;20958;-77
2022/05/27 06:59:51;;;;;;;2.90;2.60;;;;;;;14.95;69.31;100470.91;1624890;87;20944;-77
2022/05/27 07:02:17;;;;;;;3.42;2.67;;;;;;;14.94;69.34;100469.67;1624802;88;20944;-77
2022/05/27 07:04:43;;;;;;;4.37;2.90;;;;;;;14.92;69.39;100471.48;1606877;86;20936;-77
2022/05/27 07:07:10;;;;;;;3.77;3.03;;;;;;;14.93;69.44;100481.84;1619349;87;20920;-77
2022/05/27 07:09:36;;;;;;;4.05;3.35;;;;;;;14.94;69.46;100496.55;1623697;87;21518;-78
2022/05/27 07:12:11;;;;;;;3.42;2.95;;;;;;;14.94;69.53;100486.14;1623274;87;20993;-77
2022/05/27 07:14:39;;;;;;;2.12;1.92;;;;;;;14.96;69.57;100483.48;1624898;87;20976;-77
2022/05/27 07:17:05;;;;;;;3.72;2.10;;;;;;;14.96;69.55;100475.22;1660175;84;20972;-78
2022/05/27 07:19:31;;;;;;;2.98;2.37;;;;;;;14.97;69.58;100469.56;1663139;85;21410;-81
2022/05/27 07:21:59;;;;;;;4.50;1.77;;;;;;;15.00;69.62;100497.64;1639531;87;21485;-75
2022/05/27 07:24:25;;;;;;;4.47;2.10;;;;;;;15.03;69.65;100486.27;1640523;85;21173;-80
2022/05/27 07:26:51;;;;;;;3.37;2.17;;;;;;;15.04;69.65;100490.11;1637955;86;20901;-81
2022/05/27 07:29:17;;;;;;;6.08;2.70;;;;;;;15.04;69.68;100490.11;1617445;87;20952;-81
2022/05/27 07:31:46;;;;;;;4.90;2.50;;;;;;;15.06;69.72;100483.09;1650187;86;20957;-80
2022/05/27 07:34:12;;;;;;;4.20;2.50;;;;;;;15.14;69.73;100477.13;1611654;88;20917;-80
2022/05/27 07:36:38;;;;;;;4.42;2.40;;;;;;;15.19;69.73;100439.19;1595713;87;20922;-80
2022/05/27 07:39:04;;;;;;;4.10;2.60;;;;;;;15.24;69.75;100447.22;1615383;88;20899;-81
2022/05/27 07:41:31;;;;;;;3.15;2.05;;;;;;;15.27;69.71;100474.06;1592992;88;20980;-80
2022/05/27 07:43:59;;;;;;;4.67;1.95;;;;;;;15.28;69.79;100450.56;1607080;88;20981;-80
2022/05/27 07:46:26;;;;;;;3.65;1.80;;;;;;;15.26;69.70;100456.28;1606919;87;21583;-80
2022/05/27 07:48:52;;;;;;;3.70;2.12;;;;;;;15.27;69.70;100450.63;1607180;88;20906;-81
2022/05/27 07:51:20;;;;;;;5.75;1.85;;;;;;;15.29;69.71;100446.20;1614042;88;20901;-80
2022/05/27 07:53:46;;;;;;;2.65;1.80;;;;;;;15.30;69.77;100424.45;1614925;88;21079;-80
2022/05/27 07:56:13;;;;;;;2.73;1.57;;;;;;;15.36;69.81;100445.06;1599620;88;21048;-78
2022/05/27 07:58:39;;;;;;;7.05;1.80;;;;;;;15.43;69.82;100445.22;1607852;87;21012;-77
2022/05/27 08:01:08;;;;;;;3.92;1.70;;;;;;;15.47;69.77;100459.83;1598755;88;22808;-77
2022/05/27 08:03:43;;;;;;;2.58;1.52;;;;;;;15.50;69.77;100448.84;1592929;88;21394;-77
2022/05/27 08:06:10;;;;;;;3.40;1.87;;;;;;;15.53;69.78;100438.30;1608162;88;21487;-77
2022/05/27 08:08:36;;;;;;;2.47;1.40;;;;;;;15.60;69.85;100433.69;1601923;87;21853;-77
2022/05/27 08:11:03;;;;;;;4.22;1.57;;;;;;;15.68;69.85;100452.48;1612170;88;21532;-77
2022/05/27 08:13:29;;;;;;;;;;;;;;;15.74;69.75;100445.72;1606225;88;21581;-77
2022/05/27 08:15:55;;;;;;;3.57;1.70;;;;;;;15.78;69.79;100457.73;1602793;88;20153;-77
2022/05/27 08:18:24;;;;;;;4.55;1.40;;;;;;;15.87;69.78;100453.91;1601231;88;21537;-77
2022/05/27 08:20:50;;;;;;;3.20;1.40;;;;;;;15.98;69.83;100456.08;1605684;88;21128;-77
2022/05/27 08:23:16;;;;;;;3.80;1.43;;;;;;;16.05;69.69;100450.55;1592691;88;21106;-77
2022/05/27 08:25:43;;;;;;;7.22;2.08;;;;;;;16.17;69.71;100446.10;1610143;88;21624;-77
2022/05/27 08:28:10;;;;;;;1.95;1.10;;;;;;;16.27;69.69;100434.83;1592075;88;40438;-77
2022/05/27 08:30:39;;;;;;;3.92;1.67;;;;;;;16.33;69.62;100430.66;1605980;86;21525;-77
2022/05/27 08:33:06;;;;;;;3.05;1.47;;;;;;;16.34;69.50;100433.66;1650032;86;22107;-77
2022/05/27 08:38:24;;;;;;;3.72;1.20;;;;;;;16.50;69.39;100399.92;1651713;86;21598;-77
2022/05/27 08:41:27;;;;;;;3.83;1.25;;;;;;;16.58;69.40;100403.04;1646618;85;21387;-77
2022/05/27 08:44:24;;;;;;;2.67;1.02;;;;;;;16.65;69.33;100417.98;1633911;87;20940;-78
2022/05/27 08:47:24;;;;;;;8.30;1.42;;;;;;;16.72;69.18;100407.66;1616013;87;21452;-77
2022/05/27 08:50:04;;;;;;;2.30;0.98;;;;;;;16.81;69.07;100411.16;1645176;86;21013;-78
2022/05/27 08:52:49;;;;;;;5.40;1.22;;;;;;;16.90;69.03;100411.20;1645970;86;21560;-78
2022/05/27 09:01:24;;;;;;;6.92;1.50;;;;;;;17.28;68.58;100422.03;1635111;86;21433;-78
2022/05/27 09:04:19;;;;;;;3.20;1.20;;;;;;;17.39;68.61;100416.30;1647160;85;28643;-78
2022/05/27 09:07:10;;;;;;;2.02;0.88;;;;;;;17.44;68.44;100419.08;1637316;86;21450;-78
2022/05/27 09:09:45;;;;;;;5.25;1.17;;;;;;;17.45;68.18;100427.31;1653305;86;20922;-78
2022/05/27 09:12:45;;;;;;;2.80;1.00;;;;;;;17.42;68.00;100423.54;1649953;86;21646;-77
2022/05/27 09:15:34;;;;;;;2.35;1.10;;;;;;;17.35;67.61;100414.75;1653423;86;21403;-77
2022/05/27 09:18:27;;;;;;;4.05;0.98;;;;;;;17.33;67.77;100414.81;1630121;85;21430;-77
2022/05/27 09:21:16;;;;;;;4.62;0.90;;;;;;;17.44;67.81;100415.63;1581754;87;21493;-77
2022/05/27 09:24:02;;;;;;;7.33;1.20;;;;;;;17.71;67.80;100405.61;1627591;88;20937;-78
2022/05/27 09:27:12;;;;;;;5.40;1.30;;;;;;;17.91;67.36;100421.64;1603674;88;21792;-78
2022/05/27 09:30:07;;;;;;;3.87;1.47;;;;;;;17.94;67.12;100400.09;1641211;86;21426;-78
2022/05/27 09:32:54;;;;;;;3.52;1.60;;;;;;;17.98;66.95;100399.48;1620754;87;20940;-77
2022/05/27 09:35:34;;;;;;;3.17;1.00;;;;;;;18.03;66.76;100397.03;1631025;85;21004;-77
2022/05/27 09:38:05;;;;;;;2.35;1.05;;;;;;;18.13;66.65;100389.10;1643043;85;21402;-77
2022/05/27 09:40:39;;;;;;;2.52;1.20;;;;;;;18.17;66.17;100393.72;1631859;86;21073;-77
2022/05/27 09:43:20;;;;;;;1.65;0.98;;;;;;;17.99;65.92;100387.64;1645006;86;21064;-77
2022/05/27 09:45:57;;;;;;;6.03;1.72;;;;;;;17.90;65.90;100385.94;1649064;86;21071;-77
2022/05/27 09:48:26;;;;;;;3.00;1.17;;;;;;;17.89;65.80;100382.48;1625870;87;20960;-77
2022/05/27 09:50:53;;;;;;;3.52;1.10;;;;;;;17.92;65.73;100378.86;1649910;86;20938;-77
2022/05/27 09:53:33;;;;;;;6.15;1.10;;;;;;;17.96;65.53;100377.33;1652907;85;20972;-77
2022/05/27 09:56:04;;;;;;;3.70;1.15;;;;;;;18.06;65.55;100369.86;1625004;88;21383;-77
2022/05/27 09:58:35;;;;;;;6.33;0.98;;;;;;;18.19;65.29;100362.62;1606368;88;21674;-78
2022/05/27 10:01:06;;;;;;;3.10;1.00;;;;;;;18.30;64.84;100368.58;1626706;86;21509;-78
2022/05/27 10:03:36;;;;;;;4.85;1.12;;;;;;;18.33;64.64;100380.20;1612672;86;21476;-78
2022/05/27 10:06:15;;;;;;;2.83;0.98;;;;;;;18.41;64.35;100371.48;1605994;86;21133;-78
2022/05/27 10:08:53;;;;;;;2.25;1.20;;;;;;;18.50;64.13;100371.47;1625091;86;21028;-78
2022/05/27 10:11:24;;;;;;;7.55;0.98;;;;;;;18.62;64.14;100359.53;1636418;86;21518;-78
2022/05/27 10:14:14;;;;;;;2.80;0.90;;;;;;;18.74;63.91;100357.54;1646486;86;21025;-77
2022/05/27 10:16:44;;;;;;;3.22;1.10;;;;;;;18.82;63.07;100371.07;1645606;86;21059;-77
2022/05/27 10:19:18;;;;;;;3.90;0.98;;;;;;;18.75;62.91;100369.70;1641992;84;21095;-77
2022/05/27 10:22:01;;;;;;;2.62;0.90;;;;;;;18.66;61.93;100380.24;1643027;87;20908;-78
2022/05/27 10:24:39;;;;;;;3.85;1.30;;;;;;;18.64;62.58;100385.18;1657504;86;21526;-78
2022/05/27 10:27:17;;;;;;;2.02;1.10;;;;;;;18.51;61.81;100393.64;1645747;85;20965;-78
2022/05/27 10:29:53;;;;;;;6.28;0.93;;;;;;;18.28;62.04;100403.61;1642443;86;20989;-78
2022/05/27 10:32:34;;;;;;;5.35;1.15;;;;;;;18.21;62.14;100399.14;1622488;87;20996;-78
2022/05/27 10:35:23;;;;;;;6.17;1.30;;;;;;;18.20;62.08;100391.76;1631711;86;20933;-77
2022/05/27 10:38:12;;;;;;;;;;;;;;;18.19;61.82;100386.17;1603456;88;20944;-77
2022/05/27 10:41:06;;;;;;;2.20;1.00;;;;;;;18.30;61.28;100392.14;1607102;87;20115;-78
2022/05/27 10:44:07;;;;;;;3.95;1.20;;;;;;;18.39;60.73;100391.66;1602680;88;20969;-78
2022/05/27 10:46:45;;;;;;;3.65;1.50;;;;;;;18.25;61.09;100395.91;1599657;88;21023;-78
2022/05/27 10:49:55;;;;;;;6.95;1.10;;;;;;;18.06;60.79;100390.80;1637812;86;20985;-77
2022/05/27 10:53:04;;;;;;;1.60;0.85;;;;;;;17.86;60.55;100399.17;1636008;86;21088;-77
2022/05/27 10:55:38;;;;;;;5.55;1.10;;;;;;;17.70;60.08;100393.00;1634850;85;20942;-77
2022/05/27 11:04:56;;;;;;;1.50;0.80;;;;;;;17.96;59.37;100394.80;1637495;87;21128;-78
2022/05/27 11:07:50;;;;;;;2.87;0.75;;;;;;;18.09;58.78;100384.09;1631910;86;21075;-78
2022/05/27 11:10:49;;;;;;;4.40;1.02;;;;;;;18.00;57.69;100384.09;1636580;86;21078;-78
2022/05/27 11:17:00;;;;;;;3.75;1.02;;;;;;;17.57;57.77;100392.36;1633419;86;21573;-77
2022/05/27 11:19:56;;;;;;;3.77;0.85;;;;;;;17.48;57.57;100385.80;1613559;87;21106;-77
2022/05/27 11:22:40;;;;;;;3.52;0.72;;;;;;;17.55;57.22;100388.51;1594325;87;21571;-78
2022/05/27 11:25:23;;;;;;;1.32;0.60;;;;;;;17.59;55.63;100383.52;1601689;88;20980;-78
2022/05/27 11:28:30;;;;;;;5.47;0.90;;;;;;;17.65;56.43;100392.83;1636248;86;21085;-78
2022/05/27 11:31:11;;;;;;;5.67;0.68;;;;;;;17.73;56.14;100373.69;1635540;86;21127;-78
2022/05/27 11:34:15;;;;;;;2.87;0.80;;;;;;;17.74;55.98;100390.62;1620939;88;21088;-79
2022/05/27 11:37:12;;;;;;;2.00;0.60;;;;;;;17.70;55.25;100385.15;1644887;86;21587;-82
2022/05/27 11:40:22;;;;;;;6.28;1.17;;;;;;;17.69;55.76;100382.15;1614535;87;21111;-81
2022/05/27 11:43:37;;;;;;;5.28;1.20;;;;;;;17.78;55.55;100393.93;1635751;86;21031;-80
2022/05/27 11:46:39;;;;;;;2.92;0.72;;;;;;;17.83;55.08;100381.47;1634933;86;21145;-80
2022/05/27 11:49:20;;;;;;;3.22;0.80;;;;;;;17.89;54.63;100380.33;1593605;88;21136;-81
2022/05/27 11:52:25;;;;;;;2.52;0.90;;;;;;;17.84;54.35;100362.24;1644380;86;21124;-81
2022/05/27 11:55:19;;;;;;;3.17;1.00;;;;;;;17.81;54.35;100384.16;1637408;87;21140;-81
2022/05/27 11:58:06;;;;;;;2.77;0.88;;;;;;;17.72;53.92;100385.08;1650502;85;21087;-80
2022/05/27 12:00:40;;;;;;;5.03;1.10;;;;;;;17.55;53.66;100381.97;1633004;87;20973;-80
2022/05/27 12:03:21;;;;;;;2.65;0.93;;;;;;;17.49;53.60;100380.50;1645678;85;21053;-80
2022/05/27 12:05:52;;;;;;;2.20;0.82;;;;;;;17.43;53.15;100390.41;1621343;87;21204;-80
2022/05/27 12:08:55;;;;;;;2.67;0.90;;;;;;;17.36;53.12;100374.16;1645915;85;20985;-80
2022/05/27 12:11:33;;;;;;;4.25;0.68;;;;;;;17.38;52.88;100374.94;1639589;85;21534;-81
2022/05/27 12:14:13;;;;;;;4.45;0.80;;;;;;;17.45;52.41;100376.34;1647639;86;21123;-81
2022/05/27 12:16:39;;;;;;;8.98;0.95;;;;;;;17.52;52.54;100362.05;1640545;85;21105;-81
2022/05/27 12:19:13;;;;;;;;;;;;;;;17.75;52.36;100359.62;1656545;86;20977;-81
2022/05/27 12:21:44;;;;;;;5.03;0.90;;;;;;;18.03;51.64;100359.55;1613308;88;20243;-81
2022/05/27 12:24:23;;;;;;;2.02;1.00;;;;;;;18.21;52.22;100355.96;1638270;86;21084;-81
2022/05/27 12:26:56;;;;;;;2.00;1.00;;;;;;;18.30;52.00;100359.41;1622693;86;21099;-81
2022/05/27 12:29:29;;;;;;;8.08;1.00;;;;;;;18.38;51.60;100342.84;1611979;88;21060;-81
2022/05/27 12:31:57;;;;;;;2.98;0.70;;;;;;;18.48;51.41;100350.60;1650190;86;21473;-81
2022/05/27 12:34:32;;;;;;;5.30;0.98;;;;;;;18.51;51.41;100346.97;1635145;86;21170;-81